sensor_id;sensor_type;location;lat;lon;timestamp;P1;durP1;ratioP1;P2;durP2;ratioP2
13327;SDS011;6733;51.044;3.746;2023-04-23T00:01:04;18.60;;;16.80;;
13327;SDS011;6733;51.044;3.746;2023-04-23T00:03:33;20.23;;;18.07;;
13327;SDS011;6733;51.044;3.746;2023-04-23T00:06:04;20.53;;;18.37;;
13327;SDS011;6733;51.044;3.746;2023-04-23T00:08:39;20.83;;;18.50;;
13327;SDS011;6733;51.044;3.746;2023-04-23T00:11:06;20.00;;;18.00;;
13327;SDS011;6733;51.044;3.746;2023-04-23T00:13:34;20.67;;;18.57;;
13327;SDS011;6733;51.044;3.746;2023-04-23T00:16:01;20.60;;;18.50;;
13327;SDS011;6733;51.044;3.746;2023-04-23T00:18:27;21.47;;;19.40;;
13327;SDS011;6733;51.044;3.746;2023-04-23T00:20:54;20.33;;;18.33;;
13327;SDS011;6733;51.044;3.746;2023-04-23T00:23:20;21.13;;;18.90;;
13327;SDS011;6733;51.044;3.746;2023-04-23T00:25:46;20.10;;;18.20;;
13327;SDS011;6733;51.044;3.746;2023-04-23T00:28:12;22.37;;;18.33;;
13327;SDS011;6733;51.044;3.746;2023-04-23T00:30:39;20.07;;;18.03;;
13327;SDS011;6733;51.044;3.746;2023-04-23T00:33:05;21.13;;;18.93;;
13327;SDS011;6733;51.044;3.746;2023-04-23T00:35:32;20.53;;;18.37;;
13327;SDS011;6733;51.044;3.746;2023-04-23T00:37:58;22.30;;;19.77;;
13327;SDS011;6733;51.044;3.746;2023-04-23T00:40:25;21.33;;;19.10;;
13327;SDS011;6733;51.044;3.746;2023-04-23T00:42:51;21.33;;;19.17;;
13327;SDS011;6733;51.044;3.746;2023-04-23T00:45:18;20.93;;;18.83;;
13327;SDS011;6733;51.044;3.746;2023-04-23T00:47:45;21.67;;;19.47;;
13327;SDS011;6733;51.044;3.746;2023-04-23T00:50:12;22.30;;;18.77;;
13327;SDS011;6733;51.044;3.746;2023-04-23T00:52:39;19.67;;;17.60;;
13327;SDS011;6733;51.044;3.746;2023-04-23T00:55:06;21.57;;;19.30;;
13327;SDS011;6733;51.044;3.746;2023-04-23T00:57:35;21.03;;;18.93;;
13327;SDS011;6733;51.044;3.746;2023-04-23T01:00:03;20.60;;;18.60;;
13327;SDS011;6733;51.044;3.746;2023-04-23T01:02:32;22.60;;;20.20;;
13327;SDS011;6733;51.044;3.746;2023-04-23T01:04:59;20.10;;;18.00;;
13327;SDS011;6733;51.044;3.746;2023-04-23T01:07:28;21.70;;;19.47;;
13327;SDS011;6733;51.044;3.746;2023-04-23T01:09:56;21.07;;;18.97;;
13327;SDS011;6733;51.044;3.746;2023-04-23T01:12:22;21.83;;;19.73;;
13327;SDS011;6733;51.044;3.746;2023-04-23T01:14:49;21.30;;;19.20;;
13327;SDS011;6733;51.044;3.746;2023-04-23T01:17:16;20.43;;;18.33;;
13327;SDS011;6733;51.044;3.746;2023-04-23T01:19:42;22.47;;;20.13;;
13327;SDS011;6733;51.044;3.746;2023-04-23T01:22:10;20.47;;;18.27;;
13327;SDS011;6733;51.044;3.746;2023-04-23T01:24:38;21.43;;;19.20;;
13327;SDS011;6733;51.044;3.746;2023-04-23T01:27:05;20.67;;;18.53;;
13327;SDS011;6733;51.044;3.746;2023-04-23T01:29:32;20.30;;;18.20;;
13327;SDS011;6733;51.044;3.746;2023-04-23T01:31:59;20.40;;;18.30;;
13327;SDS011;6733;51.044;3.746;2023-04-23T01:34:26;19.67;;;17.67;;
13327;SDS011;6733;51.044;3.746;2023-04-23T01:36:55;19.70;;;17.60;;
13327;SDS011;6733;51.044;3.746;2023-04-23T01:39:23;18.77;;;16.87;;
13327;SDS011;6733;51.044;3.746;2023-04-23T01:41:50;20.50;;;18.33;;
13327;SDS011;6733;51.044;3.746;2023-04-23T01:44:17;19.47;;;17.30;;
13327;SDS011;6733;51.044;3.746;2023-04-23T01:46:44;20.73;;;17.97;;
13327;SDS011;6733;51.044;3.746;2023-04-23T01:49:11;20.70;;;17.43;;
13327;SDS011;6733;51.044;3.746;2023-04-23T01:51:37;21.37;;;19.17;;
13327;SDS011;6733;51.044;3.746;2023-04-23T01:54:04;20.00;;;17.83;;
13327;SDS011;6733;51.044;3.746;2023-04-23T01:56:30;20.50;;;18.30;;
13327;SDS011;6733;51.044;3.746;2023-04-23T01:58:59;19.93;;;17.77;;
13327;SDS011;6733;51.044;3.746;2023-04-23T02:01:39;20.03;;;17.93;;
13327;SDS011;6733;51.044;3.746;2023-04-23T02:04:07;19.67;;;17.67;;
13327;SDS011;6733;51.044;3.746;2023-04-23T02:06:34;19.53;;;17.50;;
13327;SDS011;6733;51.044;3.746;2023-04-23T02:09:00;19.90;;;17.00;;
13327;SDS011;6733;51.044;3.746;2023-04-23T02:11:27;19.30;;;17.20;;
13327;SDS011;6733;51.044;3.746;2023-04-23T02:13:53;21.63;;;17.27;;
13327;SDS011;6733;51.044;3.746;2023-04-23T02:16:19;19.70;;;17.60;;
13327;SDS011;6733;51.044;3.746;2023-04-23T02:18:45;19.17;;;17.27;;
13327;SDS011;6733;51.044;3.746;2023-04-23T02:21:11;19.13;;;17.13;;
13327;SDS011;6733;51.044;3.746;2023-04-23T02:23:38;19.53;;;17.43;;
13327;SDS011;6733;51.044;3.746;2023-04-23T02:26:05;18.77;;;16.87;;
13327;SDS011;6733;51.044;3.746;2023-04-23T02:28:33;19.67;;;17.57;;
13327;SDS011;6733;51.044;3.746;2023-04-23T02:30:59;19.03;;;16.40;;
13327;SDS011;6733;51.044;3.746;2023-04-23T02:54:01;18.87;;;16.93;;
13327;SDS011;6733;51.044;3.746;2023-04-23T02:56:28;18.03;;;16.13;;
13327;SDS011;6733;51.044;3.746;2023-04-23T02:58:54;19.80;;;16.97;;
13327;SDS011;6733;51.044;3.746;2023-04-23T03:01:24;19.13;;;16.70;;
13327;SDS011;6733;51.044;3.746;2023-04-23T03:03:50;18.43;;;16.53;;
13327;SDS011;6733;51.044;3.746;2023-04-23T03:06:17;19.37;;;16.90;;
13327;SDS011;6733;51.044;3.746;2023-04-23T03:08:50;19.30;;;16.87;;
13327;SDS011;6733;51.044;3.746;2023-04-23T03:11:17;18.10;;;16.20;;
13327;SDS011;6733;51.044;3.746;2023-04-23T03:13:43;17.90;;;16.03;;
13327;SDS011;6733;51.044;3.746;2023-04-23T03:16:09;18.33;;;16.17;;
13327;SDS011;6733;51.044;3.746;2023-04-23T03:18:35;18.50;;;16.60;;
13327;SDS011;6733;51.044;3.746;2023-04-23T03:21:02;19.80;;;16.10;;
13327;SDS011;6733;51.044;3.746;2023-04-23T03:23:28;17.57;;;15.77;;
13327;SDS011;6733;51.044;3.746;2023-04-23T03:25:54;18.10;;;16.27;;
13327;SDS011;6733;51.044;3.746;2023-04-23T03:28:20;16.97;;;15.23;;
13327;SDS011;6733;51.044;3.746;2023-04-23T03:30:47;16.70;;;15.00;;
13327;SDS011;6733;51.044;3.746;2023-04-23T03:33:13;16.73;;;14.93;;
13327;SDS011;6733;51.044;3.746;2023-04-23T03:35:39;15.73;;;14.33;;
13327;SDS011;6733;51.044;3.746;2023-04-23T03:38:05;15.53;;;13.87;;
13327;SDS011;6733;51.044;3.746;2023-04-23T03:40:32;16.77;;;13.53;;
13327;SDS011;6733;51.044;3.746;2023-04-23T03:42:58;15.00;;;13.40;;
13327;SDS011;6733;51.044;3.746;2023-04-23T03:45:24;15.57;;;14.00;;
13327;SDS011;6733;51.044;3.746;2023-04-23T03:47:51;14.37;;;12.83;;
13327;SDS011;6733;51.044;3.746;2023-04-23T03:50:17;19.67;;;14.00;;
13327;SDS011;6733;51.044;3.746;2023-04-23T03:52:43;15.40;;;12.63;;
13327;SDS011;6733;51.044;3.746;2023-04-23T03:55:09;14.67;;;13.13;;
13327;SDS011;6733;51.044;3.746;2023-04-23T03:57:36;14.47;;;12.53;;
13327;SDS011;6733;51.044;3.746;2023-04-23T04:00:03;13.57;;;12.10;;
13327;SDS011;6733;51.044;3.746;2023-04-23T04:02:33;14.17;;;12.67;;
13327;SDS011;6733;51.044;3.746;2023-04-23T04:04:59;14.40;;;11.63;;
13327;SDS011;6733;51.044;3.746;2023-04-23T04:07:28;12.10;;;10.90;;
13327;SDS011;6733;51.044;3.746;2023-04-23T04:09:54;13.63;;;11.73;;
13327;SDS011;6733;51.044;3.746;2023-04-23T04:12:20;11.87;;;10.60;;
13327;SDS011;6733;51.044;3.746;2023-04-23T04:14:46;12.30;;;10.53;;
13327;SDS011;6733;51.044;3.746;2023-04-23T04:17:12;14.97;;;11.07;;
13327;SDS011;6733;51.044;3.746;2023-04-23T04:19:41;14.70;;;10.90;;
13327;SDS011;6733;51.044;3.746;2023-04-23T04:22:08;11.97;;;9.53;;
13327;SDS011;6733;51.044;3.746;2023-04-23T04:24:34;16.27;;;11.10;;
13327;SDS011;6733;51.044;3.746;2023-04-23T04:27:01;11.43;;;10.20;;
13327;SDS011;6733;51.044;3.746;2023-04-23T04:29:27;11.20;;;9.53;;
13327;SDS011;6733;51.044;3.746;2023-04-23T04:31:53;11.60;;;9.57;;
13327;SDS011;6733;51.044;3.746;2023-04-23T04:34:20;13.77;;;9.57;;
13327;SDS011;6733;51.044;3.746;2023-04-23T04:36:47;12.33;;;9.50;;
13327;SDS011;6733;51.044;3.746;2023-04-23T04:39:16;13.63;;;10.03;;
13327;SDS011;6733;51.044;3.746;2023-04-23T04:41:42;10.17;;;9.07;;
13327;SDS011;6733;51.044;3.746;2023-04-23T04:44:09;12.27;;;9.47;;
13327;SDS011;6733;51.044;3.746;2023-04-23T04:46:35;14.93;;;8.63;;
13327;SDS011;6733;51.044;3.746;2023-04-23T04:49:08;13.50;;;9.43;;
13327;SDS011;6733;51.044;3.746;2023-04-23T04:51:38;11.47;;;7.70;;
13327;SDS011;6733;51.044;3.746;2023-04-23T04:54:05;9.23;;;7.13;;
13327;SDS011;6733;51.044;3.746;2023-04-23T04:56:34;12.40;;;7.53;;
13327;SDS011;6733;51.044;3.746;2023-04-23T04:59:01;10.53;;;7.20;;
13327;SDS011;6733;51.044;3.746;2023-04-23T05:01:28;11.03;;;7.33;;
13327;SDS011;6733;51.044;3.746;2023-04-23T05:03:55;11.97;;;7.30;;
13327;SDS011;6733;51.044;3.746;2023-04-23T05:06:22;8.00;;;6.47;;
13327;SDS011;6733;51.044;3.746;2023-04-23T05:08:48;8.83;;;6.50;;
13327;SDS011;6733;51.044;3.746;2023-04-23T05:11:17;9.63;;;6.27;;
13327;SDS011;6733;51.044;3.746;2023-04-23T05:13:47;10.73;;;6.97;;
13327;SDS011;6733;51.044;3.746;2023-04-23T05:16:13;10.57;;;6.43;;
13327;SDS011;6733;51.044;3.746;2023-04-23T05:18:40;9.83;;;6.67;;
13327;SDS011;6733;51.044;3.746;2023-04-23T05:21:07;10.53;;;6.83;;
13327;SDS011;6733;51.044;3.746;2023-04-23T05:23:33;8.97;;;5.80;;
13327;SDS011;6733;51.044;3.746;2023-04-23T05:26:01;13.03;;;7.13;;
13327;SDS011;6733;51.044;3.746;2023-04-23T05:28:30;10.13;;;7.17;;
13327;SDS011;6733;51.044;3.746;2023-04-23T05:30:59;10.57;;;7.70;;
13327;SDS011;6733;51.044;3.746;2023-04-23T05:33:25;11.73;;;8.13;;
13327;SDS011;6733;51.044;3.746;2023-04-23T05:35:51;11.73;;;8.57;;
13327;SDS011;6733;51.044;3.746;2023-04-23T05:38:17;12.93;;;7.23;;
13327;SDS011;6733;51.044;3.746;2023-04-23T05:40:43;14.10;;;9.70;;
13327;SDS011;6733;51.044;3.746;2023-04-23T05:43:10;11.47;;;9.03;;
13327;SDS011;6733;51.044;3.746;2023-04-23T05:45:37;15.73;;;8.40;;
13327;SDS011;6733;51.044;3.746;2023-04-23T05:48:03;8.63;;;5.20;;
13327;SDS011;6733;51.044;3.746;2023-04-23T05:50:29;8.47;;;5.03;;
13327;SDS011;6733;51.044;3.746;2023-04-23T05:52:55;11.07;;;5.57;;
13327;SDS011;6733;51.044;3.746;2023-04-23T05:55:21;9.00;;;5.37;;
13327;SDS011;6733;51.044;3.746;2023-04-23T05:57:48;10.40;;;5.37;;
13327;SDS011;6733;51.044;3.746;2023-04-23T06:00:14;10.07;;;5.53;;
13327;SDS011;6733;51.044;3.746;2023-04-23T06:02:41;8.00;;;4.87;;
13327;SDS011;6733;51.044;3.746;2023-04-23T06:05:07;6.90;;;4.97;;
13327;SDS011;6733;51.044;3.746;2023-04-23T06:07:34;7.17;;;4.90;;
13327;SDS011;6733;51.044;3.746;2023-04-23T06:10:01;9.57;;;4.90;;
13327;SDS011;6733;51.044;3.746;2023-04-23T06:12:30;8.57;;;5.03;;
13327;SDS011;6733;51.044;3.746;2023-04-23T06:14:56;10.00;;;4.80;;
13327;SDS011;6733;51.044;3.746;2023-04-23T06:17:23;11.03;;;4.23;;
13327;SDS011;6733;51.044;3.746;2023-04-23T06:19:49;8.53;;;4.53;;
13327;SDS011;6733;51.044;3.746;2023-04-23T06:22:15;8.87;;;4.43;;
13327;SDS011;6733;51.044;3.746;2023-04-23T06:24:42;9.40;;;4.77;;
13327;SDS011;6733;51.044;3.746;2023-04-23T06:27:08;7.67;;;4.40;;
13327;SDS011;6733;51.044;3.746;2023-04-23T06:29:34;10.77;;;4.40;;
13327;SDS011;6733;51.044;3.746;2023-04-23T06:32:00;8.63;;;5.80;;
13327;SDS011;6733;51.044;3.746;2023-04-23T06:34:27;10.03;;;4.50;;
13327;SDS011;6733;51.044;3.746;2023-04-23T06:36:54;10.33;;;4.17;;
13327;SDS011;6733;51.044;3.746;2023-04-23T06:39:20;7.93;;;4.30;;
13327;SDS011;6733;51.044;3.746;2023-04-23T06:41:46;8.17;;;4.10;;
13327;SDS011;6733;51.044;3.746;2023-04-23T06:44:12;7.80;;;4.03;;
13327;SDS011;6733;51.044;3.746;2023-04-23T06:46:38;11.20;;;4.40;;
13327;SDS011;6733;51.044;3.746;2023-04-23T06:49:05;8.57;;;3.73;;
13327;SDS011;6733;51.044;3.746;2023-04-23T06:51:31;9.80;;;3.83;;
13327;SDS011;6733;51.044;3.746;2023-04-23T06:53:57;10.20;;;4.03;;
13327;SDS011;6733;51.044;3.746;2023-04-23T06:56:23;6.73;;;3.50;;
13327;SDS011;6733;51.044;3.746;2023-04-23T06:58:51;7.47;;;3.67;;
13327;SDS011;6733;51.044;3.746;2023-04-23T07:01:18;6.97;;;3.60;;
13327;SDS011;6733;51.044;3.746;2023-04-23T07:03:44;9.60;;;3.90;;
13327;SDS011;6733;51.044;3.746;2023-04-23T07:06:14;8.17;;;4.77;;
13327;SDS011;6733;51.044;3.746;2023-04-23T07:08:41;10.27;;;4.00;;
13327;SDS011;6733;51.044;3.746;2023-04-23T07:11:12;7.07;;;4.00;;
13327;SDS011;6733;51.044;3.746;2023-04-23T07:13:41;7.87;;;4.20;;
13327;SDS011;6733;51.044;3.746;2023-04-23T07:16:07;10.30;;;4.57;;
13327;SDS011;6733;51.044;3.746;2023-04-23T07:18:33;7.87;;;3.80;;
13327;SDS011;6733;51.044;3.746;2023-04-23T07:20:59;9.53;;;3.10;;
13327;SDS011;6733;51.044;3.746;2023-04-23T07:23:26;9.27;;;3.97;;
13327;SDS011;6733;51.044;3.746;2023-04-23T07:25:52;6.43;;;3.50;;
13327;SDS011;6733;51.044;3.746;2023-04-23T07:28:18;7.50;;;3.73;;
13327;SDS011;6733;51.044;3.746;2023-04-23T07:30:44;12.70;;;3.77;;
13327;SDS011;6733;51.044;3.746;2023-04-23T07:33:10;9.17;;;3.43;;
13327;SDS011;6733;51.044;3.746;2023-04-23T07:35:37;8.57;;;3.73;;
13327;SDS011;6733;51.044;3.746;2023-04-23T07:38:03;7.47;;;3.77;;
13327;SDS011;6733;51.044;3.746;2023-04-23T07:40:29;8.63;;;3.90;;
13327;SDS011;6733;51.044;3.746;2023-04-23T07:42:55;8.17;;;3.57;;
13327;SDS011;6733;51.044;3.746;2023-04-23T07:45:23;7.43;;;4.27;;
13327;SDS011;6733;51.044;3.746;2023-04-23T07:47:50;10.23;;;3.57;;
13327;SDS011;6733;51.044;3.746;2023-04-23T07:50:16;6.10;;;3.17;;
13327;SDS011;6733;51.044;3.746;2023-04-23T07:52:42;6.27;;;3.53;;
13327;SDS011;6733;51.044;3.746;2023-04-23T07:55:08;10.27;;;4.00;;
13327;SDS011;6733;51.044;3.746;2023-04-23T07:57:35;7.60;;;3.97;;
13327;SDS011;6733;51.044;3.746;2023-04-23T08:00:01;9.70;;;3.67;;
13327;SDS011;6733;51.044;3.746;2023-04-23T08:02:28;8.97;;;3.73;;
13327;SDS011;6733;51.044;3.746;2023-04-23T08:04:54;11.13;;;3.73;;
13327;SDS011;6733;51.044;3.746;2023-04-23T08:07:20;9.80;;;3.80;;
13327;SDS011;6733;51.044;3.746;2023-04-23T08:09:47;11.43;;;3.53;;
13327;SDS011;6733;51.044;3.746;2023-04-23T08:12:13;8.20;;;3.60;;
13327;SDS011;6733;51.044;3.746;2023-04-23T08:14:42;6.03;;;3.43;;
13327;SDS011;6733;51.044;3.746;2023-04-23T08:17:08;8.33;;;4.00;;
13327;SDS011;6733;51.044;3.746;2023-04-23T08:19:35;10.70;;;4.23;;
13327;SDS011;6733;51.044;3.746;2023-04-23T08:22:01;8.77;;;4.10;;
13327;SDS011;6733;51.044;3.746;2023-04-23T08:24:27;6.17;;;3.30;;
13327;SDS011;6733;51.044;3.746;2023-04-23T08:26:54;8.87;;;3.73;;
13327;SDS011;6733;51.044;3.746;2023-04-23T08:29:20;9.30;;;3.27;;
13327;SDS011;6733;51.044;3.746;2023-04-23T08:31:46;12.23;;;4.47;;
13327;SDS011;6733;51.044;3.746;2023-04-23T08:34:12;11.20;;;4.20;;
13327;SDS011;6733;51.044;3.746;2023-04-23T08:36:39;9.47;;;3.73;;
13327;SDS011;6733;51.044;3.746;2023-04-23T08:39:06;7.93;;;3.50;;
13327;SDS011;6733;51.044;3.746;2023-04-23T08:41:33;8.37;;;3.50;;
13327;SDS011;6733;51.044;3.746;2023-04-23T08:44:07;9.53;;;3.77;;
13327;SDS011;6733;51.044;3.746;2023-04-23T08:46:43;8.30;;;3.43;;
13327;SDS011;6733;51.044;3.746;2023-04-23T08:49:16;11.73;;;4.03;;
13327;SDS011;6733;51.044;3.746;2023-04-23T08:51:53;8.83;;;3.37;;
13327;SDS011;6733;51.044;3.746;2023-04-23T08:54:25;7.23;;;3.43;;
13327;SDS011;6733;51.044;3.746;2023-04-23T08:56:55;7.40;;;2.77;;
13327;SDS011;6733;51.044;3.746;2023-04-23T08:59:26;8.37;;;3.47;;
13327;SDS011;6733;51.044;3.746;2023-04-23T09:01:56;10.57;;;3.23;;
13327;SDS011;6733;51.044;3.746;2023-04-23T09:04:24;8.03;;;3.30;;
13327;SDS011;6733;51.044;3.746;2023-04-23T09:06:51;9.40;;;3.37;;
13327;SDS011;6733;51.044;3.746;2023-04-23T09:09:17;9.73;;;3.00;;
13327;SDS011;6733;51.044;3.746;2023-04-23T09:11:48;6.83;;;3.10;;
13327;SDS011;6733;51.044;3.746;2023-04-23T09:14:14;8.10;;;3.27;;
13327;SDS011;6733;51.044;3.746;2023-04-23T09:16:41;8.70;;;3.20;;
13327;SDS011;6733;51.044;3.746;2023-04-23T09:19:09;6.67;;;2.80;;
13327;SDS011;6733;51.044;3.746;2023-04-23T09:21:37;8.80;;;3.47;;
13327;SDS011;6733;51.044;3.746;2023-04-23T09:24:07;7.60;;;3.00;;
13327;SDS011;6733;51.044;3.746;2023-04-23T09:26:38;7.73;;;3.43;;
13327;SDS011;6733;51.044;3.746;2023-04-23T09:29:13;8.03;;;3.30;;
13327;SDS011;6733;51.044;3.746;2023-04-23T09:31:46;6.60;;;2.60;;
13327;SDS011;6733;51.044;3.746;2023-04-23T09:34:16;3.93;;;2.40;;
13327;SDS011;6733;51.044;3.746;2023-04-23T09:36:44;8.20;;;2.77;;
13327;SDS011;6733;51.044;3.746;2023-04-23T09:39:15;4.90;;;2.70;;
13327;SDS011;6733;51.044;3.746;2023-04-23T09:41:46;6.83;;;2.53;;
13327;SDS011;6733;51.044;3.746;2023-04-23T09:44:16;4.80;;;2.60;;
13327;SDS011;6733;51.044;3.746;2023-04-23T09:46:44;5.17;;;2.57;;
13327;SDS011;6733;51.044;3.746;2023-04-23T09:49:11;13.17;;;3.03;;
13327;SDS011;6733;51.044;3.746;2023-04-23T09:51:38;8.13;;;2.97;;
13327;SDS011;6733;51.044;3.746;2023-04-23T09:56:43;7.60;;;3.10;;
13327;SDS011;6733;51.044;3.746;2023-04-23T09:59:24;6.67;;;2.80;;
13327;SDS011;6733;51.044;3.746;2023-04-23T10:01:52;7.87;;;2.70;;
13327;SDS011;6733;51.044;3.746;2023-04-23T10:04:19;8.77;;;3.20;;
13327;SDS011;6733;51.044;3.746;2023-04-23T10:06:47;8.30;;;3.23;;
13327;SDS011;6733;51.044;3.746;2023-04-23T10:09:18;10.03;;;2.70;;
13327;SDS011;6733;51.044;3.746;2023-04-23T10:11:58;10.20;;;3.63;;
13327;SDS011;6733;51.044;3.746;2023-04-23T10:14:27;7.43;;;2.77;;
13327;SDS011;6733;51.044;3.746;2023-04-23T10:16:58;9.20;;;3.20;;
13327;SDS011;6733;51.044;3.746;2023-04-23T10:19:26;8.33;;;2.90;;
13327;SDS011;6733;51.044;3.746;2023-04-23T10:21:57;7.80;;;2.93;;
13327;SDS011;6733;51.044;3.746;2023-04-23T10:24:34;5.53;;;2.80;;
13327;SDS011;6733;51.044;3.746;2023-04-23T10:27:04;5.23;;;2.87;;
13327;SDS011;6733;51.044;3.746;2023-04-23T10:29:35;9.57;;;3.70;;
13327;SDS011;6733;51.044;3.746;2023-04-23T10:32:02;10.60;;;3.10;;
13327;SDS011;6733;51.044;3.746;2023-04-23T10:34:29;7.93;;;3.37;;
13327;SDS011;6733;51.044;3.746;2023-04-23T10:36:57;7.87;;;3.13;;
13327;SDS011;6733;51.044;3.746;2023-04-23T10:39:27;7.07;;;3.03;;
13327;SDS011;6733;51.044;3.746;2023-04-23T10:41:59;11.93;;;3.23;;
13327;SDS011;6733;51.044;3.746;2023-04-23T10:44:36;7.43;;;3.00;;
13327;SDS011;6733;51.044;3.746;2023-04-23T10:47:03;7.73;;;3.23;;
13327;SDS011;6733;51.044;3.746;2023-04-23T10:49:30;7.47;;;3.37;;
13327;SDS011;6733;51.044;3.746;2023-04-23T10:54:33;8.17;;;3.27;;
13327;SDS011;6733;51.044;3.746;2023-04-23T10:57:01;6.40;;;3.10;;
13327;SDS011;6733;51.044;3.746;2023-04-23T10:59:29;9.30;;;3.20;;
13327;SDS011;6733;51.044;3.746;2023-04-23T11:01:57;7.67;;;2.60;;
13327;SDS011;6733;51.044;3.746;2023-04-23T11:04:30;9.27;;;2.80;;
13327;SDS011;6733;51.044;3.746;2023-04-23T11:07:11;7.40;;;2.60;;
13327;SDS011;6733;51.044;3.746;2023-04-23T11:09:42;6.63;;;2.60;;
13327;SDS011;6733;51.044;3.746;2023-04-23T11:14:50;4.63;;;2.27;;
13327;SDS011;6733;51.044;3.746;2023-04-23T11:17:17;7.00;;;3.00;;
13327;SDS011;6733;51.044;3.746;2023-04-23T11:22:38;5.33;;;2.60;;
13327;SDS011;6733;51.044;3.746;2023-04-23T11:25:09;3.83;;;2.27;;
13327;SDS011;6733;51.044;3.746;2023-04-23T11:27:38;9.20;;;4.43;;
13327;SDS011;6733;51.044;3.746;2023-04-23T11:30:09;4.17;;;2.47;;
13327;SDS011;6733;51.044;3.746;2023-04-23T11:32:36;4.73;;;2.30;;
13327;SDS011;6733;51.044;3.746;2023-04-23T11:35:03;6.87;;;2.20;;
13327;SDS011;6733;51.044;3.746;2023-04-23T11:37:31;7.23;;;3.10;;
13327;SDS011;6733;51.044;3.746;2023-04-23T11:39:58;4.47;;;2.17;;
13327;SDS011;6733;51.044;3.746;2023-04-23T11:42:45;4.07;;;2.03;;
13327;SDS011;6733;51.044;3.746;2023-04-23T11:45:22;5.20;;;2.00;;
13327;SDS011;6733;51.044;3.746;2023-04-23T11:47:51;7.00;;;1.93;;
13327;SDS011;6733;51.044;3.746;2023-04-23T11:50:22;4.60;;;1.80;;
13327;SDS011;6733;51.044;3.746;2023-04-23T11:52:53;4.07;;;2.30;;
13327;SDS011;6733;51.044;3.746;2023-04-23T11:55:19;4.87;;;2.13;;
13327;SDS011;6733;51.044;3.746;2023-04-23T11:57:47;6.93;;;2.00;;
13327;SDS011;6733;51.044;3.746;2023-04-23T12:00:18;3.60;;;1.80;;
13327;SDS011;6733;51.044;3.746;2023-04-23T12:02:56;6.07;;;2.37;;
13327;SDS011;6733;51.044;3.746;2023-04-23T12:05:33;7.00;;;2.17;;
13327;SDS011;6733;51.044;3.746;2023-04-23T12:08:09;4.57;;;2.13;;
13327;SDS011;6733;51.044;3.746;2023-04-23T12:13:17;5.80;;;2.67;;
13327;SDS011;6733;51.044;3.746;2023-04-23T12:15:48;7.57;;;2.47;;
13327;SDS011;6733;51.044;3.746;2023-04-23T12:18:39;5.67;;;2.30;;
13327;SDS011;6733;51.044;3.746;2023-04-23T12:21:07;5.40;;;2.50;;
13327;SDS011;6733;51.044;3.746;2023-04-23T12:23:38;6.13;;;2.73;;
13327;SDS011;6733;51.044;3.746;2023-04-23T12:26:09;6.53;;;2.97;;
13327;SDS011;6733;51.044;3.746;2023-04-23T12:31:21;7.10;;;2.30;;
13327;SDS011;6733;51.044;3.746;2023-04-23T12:34:01;3.73;;;2.17;;
13327;SDS011;6733;51.044;3.746;2023-04-23T12:36:29;4.60;;;2.40;;
13327;SDS011;6733;51.044;3.746;2023-04-23T12:41:54;3.47;;;2.63;;
13327;SDS011;6733;51.044;3.746;2023-04-23T12:44:46;3.63;;;2.13;;
13327;SDS011;6733;51.044;3.746;2023-04-23T12:47:13;5.50;;;2.40;;
13327;SDS011;6733;51.044;3.746;2023-04-23T12:49:40;4.00;;;2.13;;
13327;SDS011;6733;51.044;3.746;2023-04-23T12:52:07;4.63;;;2.33;;
13327;SDS011;6733;51.044;3.746;2023-04-23T12:54:34;4.13;;;2.40;;
13327;SDS011;6733;51.044;3.746;2023-04-23T12:57:02;6.30;;;2.63;;
13327;SDS011;6733;51.044;3.746;2023-04-23T12:59:29;5.50;;;2.73;;
13327;SDS011;6733;51.044;3.746;2023-04-23T13:01:56;4.03;;;2.00;;
13327;SDS011;6733;51.044;3.746;2023-04-23T13:04:31;3.70;;;2.43;;
13327;SDS011;6733;51.044;3.746;2023-04-23T13:06:59;5.50;;;2.30;;
13327;SDS011;6733;51.044;3.746;2023-04-23T13:09:27;3.17;;;2.00;;
13327;SDS011;6733;51.044;3.746;2023-04-23T13:11:53;3.43;;;2.00;;
13327;SDS011;6733;51.044;3.746;2023-04-23T13:14:20;2.80;;;2.20;;
13327;SDS011;6733;51.044;3.746;2023-04-23T13:16:46;3.07;;;1.73;;
13327;SDS011;6733;51.044;3.746;2023-04-23T13:19:13;3.97;;;2.00;;
13327;SDS011;6733;51.044;3.746;2023-04-23T13:21:41;4.73;;;1.87;;
13327;SDS011;6733;51.044;3.746;2023-04-23T13:24:07;2.47;;;1.83;;
13327;SDS011;6733;51.044;3.746;2023-04-23T13:26:33;2.30;;;1.70;;
13327;SDS011;6733;51.044;3.746;2023-04-23T13:29:00;2.93;;;1.70;;
13327;SDS011;6733;51.044;3.746;2023-04-23T13:31:27;2.57;;;2.10;;
13327;SDS011;6733;51.044;3.746;2023-04-23T13:33:53;4.87;;;2.30;;
13327;SDS011;6733;51.044;3.746;2023-04-23T13:36:20;2.30;;;1.70;;
13327;SDS011;6733;51.044;3.746;2023-04-23T13:38:47;2.00;;;1.63;;
13327;SDS011;6733;51.044;3.746;2023-04-23T13:41:13;2.67;;;1.87;;
13327;SDS011;6733;51.044;3.746;2023-04-23T13:43:39;3.67;;;2.07;;
13327;SDS011;6733;51.044;3.746;2023-04-23T13:46:06;2.97;;;2.10;;
13327;SDS011;6733;51.044;3.746;2023-04-23T13:48:32;3.97;;;2.07;;
13327;SDS011;6733;51.044;3.746;2023-04-23T13:50:59;3.40;;;2.00;;
13327;SDS011;6733;51.044;3.746;2023-04-23T13:53:26;3.00;;;2.10;;
13327;SDS011;6733;51.044;3.746;2023-04-23T13:55:53;4.43;;;2.60;;
13327;SDS011;6733;51.044;3.746;2023-04-23T13:58:20;4.33;;;2.23;;
13327;SDS011;6733;51.044;3.746;2023-04-23T14:00:48;9.07;;;2.80;;
13327;SDS011;6733;51.044;3.746;2023-04-23T14:03:14;5.13;;;2.30;;
13327;SDS011;6733;51.044;3.746;2023-04-23T14:05:41;3.33;;;2.27;;
13327;SDS011;6733;51.044;3.746;2023-04-23T14:08:07;5.10;;;2.30;;
13327;SDS011;6733;51.044;3.746;2023-04-23T14:10:33;4.60;;;2.33;;
13327;SDS011;6733;51.044;3.746;2023-04-23T14:13:01;2.93;;;2.03;;
13327;SDS011;6733;51.044;3.746;2023-04-23T14:15:28;3.10;;;2.27;;
13327;SDS011;6733;51.044;3.746;2023-04-23T14:17:54;4.67;;;2.17;;
13327;SDS011;6733;51.044;3.746;2023-04-23T14:20:20;2.90;;;2.20;;
13327;SDS011;6733;51.044;3.746;2023-04-23T14:22:53;2.90;;;2.00;;
13327;SDS011;6733;51.044;3.746;2023-04-23T14:25:28;6.30;;;2.27;;
13327;SDS011;6733;51.044;3.746;2023-04-23T14:28:00;6.37;;;2.13;;
13327;SDS011;6733;51.044;3.746;2023-04-23T14:30:34;2.73;;;1.97;;
13327;SDS011;6733;51.044;3.746;2023-04-23T14:33:01;3.97;;;2.10;;
13327;SDS011;6733;51.044;3.746;2023-04-23T14:35:27;2.63;;;1.77;;
13327;SDS011;6733;51.044;3.746;2023-04-23T14:37:54;2.87;;;2.20;;
13327;SDS011;6733;51.044;3.746;2023-04-23T14:40:20;4.57;;;2.10;;
13327;SDS011;6733;51.044;3.746;2023-04-23T14:42:47;5.07;;;2.47;;
13327;SDS011;6733;51.044;3.746;2023-04-23T14:45:14;4.63;;;2.30;;
13327;SDS011;6733;51.044;3.746;2023-04-23T14:47:43;3.07;;;2.13;;
13327;SDS011;6733;51.044;3.746;2023-04-23T14:50:13;3.13;;;2.00;;
13327;SDS011;6733;51.044;3.746;2023-04-23T14:52:40;4.00;;;2.10;;
13327;SDS011;6733;51.044;3.746;2023-04-23T14:55:09;3.97;;;2.07;;
13327;SDS011;6733;51.044;3.746;2023-04-23T14:57:36;4.00;;;2.53;;
13327;SDS011;6733;51.044;3.746;2023-04-23T15:00:03;6.27;;;2.50;;
13327;SDS011;6733;51.044;3.746;2023-04-23T15:02:30;5.53;;;2.30;;
13327;SDS011;6733;51.044;3.746;2023-04-23T15:04:57;2.57;;;2.10;;
13327;SDS011;6733;51.044;3.746;2023-04-23T15:07:23;4.50;;;2.30;;
13327;SDS011;6733;51.044;3.746;2023-04-23T15:09:50;3.17;;;1.90;;
13327;SDS011;6733;51.044;3.746;2023-04-23T15:15:21;3.73;;;2.83;;
13327;SDS011;6733;51.044;3.746;2023-04-23T15:17:47;3.33;;;2.30;;
13327;SDS011;6733;51.044;3.746;2023-04-23T15:20:14;4.10;;;2.50;;
13327;SDS011;6733;51.044;3.746;2023-04-23T15:22:41;3.77;;;2.93;;
13327;SDS011;6733;51.044;3.746;2023-04-23T15:25:13;2.47;;;2.07;;
13327;SDS011;6733;51.044;3.746;2023-04-23T15:27:41;6.47;;;2.50;;
13327;SDS011;6733;51.044;3.746;2023-04-23T15:30:08;2.93;;;2.57;;
13327;SDS011;6733;51.044;3.746;2023-04-23T15:32:34;3.53;;;2.73;;
13327;SDS011;6733;51.044;3.746;2023-04-23T15:35:00;3.30;;;2.53;;
13327;SDS011;6733;51.044;3.746;2023-04-23T15:37:27;4.30;;;2.43;;
13327;SDS011;6733;51.044;3.746;2023-04-23T15:39:55;4.50;;;2.60;;